sensor_id;sensor_type;location;lat;lon;timestamp;P1;durP1;ratioP1;P2;durP2;ratioP2
3993;SDS011;2011;48.238;13.948;2022-11-15T00:02:09;24.30;;;14.37;;
3993;SDS011;2011;48.238;13.948;2022-11-15T00:04:36;32.10;;;18.60;;
3993;SDS011;2011;48.238;13.948;2022-11-15T00:07:04;31.57;;;18.40;;
3993;SDS011;2011;48.238;13.948;2022-11-15T00:09:31;29.10;;;16.33;;
3993;SDS011;2011;48.238;13.948;2022-11-15T00:11:58;32.37;;;16.83;;
3993;SDS011;2011;48.238;13.948;2022-11-15T00:14:25;36.53;;;18.53;;
3993;SDS011;2011;48.238;13.948;2022-11-15T00:16:52;34.07;;;16.60;;
3993;SDS011;2011;48.238;13.948;2022-11-15T00:19:19;37.40;;;16.40;;
3993;SDS011;2011;48.238;13.948;2022-11-15T00:21:46;35.90;;;18.60;;
3993;SDS011;2011;48.238;13.948;2022-11-15T00:24:14;27.57;;;15.27;;
3993;SDS011;2011;48.238;13.948;2022-11-15T00:26:41;25.10;;;14.23;;
3993;SDS011;2011;48.238;13.948;2022-11-15T00:29:08;29.17;;;15.10;;
3993;SDS011;2011;48.238;13.948;2022-11-15T00:31:34;25.60;;;15.10;;
3993;SDS011;2011;48.238;13.948;2022-11-15T00:34:01;23.87;;;14.50;;
3993;SDS011;2011;48.238;13.948;2022-11-15T00:36:28;30.93;;;17.10;;
3993;SDS011;2011;48.238;13.948;2022-11-15T00:38:58;33.53;;;15.70;;
3993;SDS011;2011;48.238;13.948;2022-11-15T00:41:26;37.47;;;16.73;;
3993;SDS011;2011;48.238;13.948;2022-11-15T00:43:53;34.63;;;19.10;;
3993;SDS011;2011;48.238;13.948;2022-11-15T00:46:20;42.70;;;18.83;;
3993;SDS011;2011;48.238;13.948;2022-11-15T00:48:47;30.20;;;15.83;;
3993;SDS011;2011;48.238;13.948;2022-11-15T00:51:14;30.33;;;15.87;;
3993;SDS011;2011;48.238;13.948;2022-11-15T00:53:41;31.87;;;17.40;;
3993;SDS011;2011;48.238;13.948;2022-11-15T00:56:08;28.70;;;15.07;;
3993;SDS011;2011;48.238;13.948;2022-11-15T00:58:36;29.40;;;16.73;;
3993;SDS011;2011;48.238;13.948;2022-11-15T01:01:06;28.07;;;15.00;;
3993;SDS011;2011;48.238;13.948;2022-11-15T01:03:35;27.63;;;14.93;;
3993;SDS011;2011;48.238;13.948;2022-11-15T01:06:03;25.47;;;14.70;;
3993;SDS011;2011;48.238;13.948;2022-11-15T01:08:30;19.30;;;12.17;;
3993;SDS011;2011;48.238;13.948;2022-11-15T01:10:59;23.73;;;14.20;;
3993;SDS011;2011;48.238;13.948;2022-11-15T01:13:29;32.50;;;17.17;;
3993;SDS011;2011;48.238;13.948;2022-11-15T01:15:57;41.23;;;20.30;;
3993;SDS011;2011;48.238;13.948;2022-11-15T01:18:25;30.13;;;17.17;;
3993;SDS011;2011;48.238;13.948;2022-11-15T01:20:51;32.90;;;17.93;;
3993;SDS011;2011;48.238;13.948;2022-11-15T01:23:18;35.93;;;16.33;;
3993;SDS011;2011;48.238;13.948;2022-11-15T01:25:45;32.97;;;18.10;;
3993;SDS011;2011;48.238;13.948;2022-11-15T01:28:12;27.27;;;15.03;;
3993;SDS011;2011;48.238;13.948;2022-11-15T01:30:39;25.17;;;15.33;;
3993;SDS011;2011;48.238;13.948;2022-11-15T01:33:07;26.63;;;14.93;;
3993;SDS011;2011;48.238;13.948;2022-11-15T01:35:37;32.40;;;17.80;;
3993;SDS011;2011;48.238;13.948;2022-11-15T01:38:05;27.67;;;15.70;;
3993;SDS011;2011;48.238;13.948;2022-11-15T01:40:31;31.93;;;15.93;;
3993;SDS011;2011;48.238;13.948;2022-11-15T01:42:58;40.53;;;18.63;;
3993;SDS011;2011;48.238;13.948;2022-11-15T01:45:25;31.73;;;15.63;;
3993;SDS011;2011;48.238;13.948;2022-11-15T01:47:52;33.50;;;16.83;;
3993;SDS011;2011;48.238;13.948;2022-11-15T01:50:23;46.13;;;20.73;;
3993;SDS011;2011;48.238;13.948;2022-11-15T01:52:54;31.67;;;18.23;;
3993;SDS011;2011;48.238;13.948;2022-11-15T01:55:22;39.93;;;17.87;;
3993;SDS011;2011;48.238;13.948;2022-11-15T01:57:53;30.67;;;17.30;;
3993;SDS011;2011;48.238;13.948;2022-11-15T02:00:22;37.43;;;16.63;;
3993;SDS011;2011;48.238;13.948;2022-11-15T02:02:49;31.67;;;16.97;;
3993;SDS011;2011;48.238;13.948;2022-11-15T02:05:17;37.50;;;18.17;;
3993;SDS011;2011;48.238;13.948;2022-11-15T02:07:45;19.03;;;11.83;;
3993;SDS011;2011;48.238;13.948;2022-11-15T02:10:17;26.20;;;12.43;;
3993;SDS011;2011;48.238;13.948;2022-11-15T02:12:45;21.07;;;12.50;;
3993;SDS011;2011;48.238;13.948;2022-11-15T02:15:13;29.50;;;14.43;;
3993;SDS011;2011;48.238;13.948;2022-11-15T02:17:48;29.90;;;16.37;;
3993;SDS011;2011;48.238;13.948;2022-11-15T02:20:30;42.63;;;17.53;;
3993;SDS011;2011;48.238;13.948;2022-11-15T02:23:28;32.90;;;15.87;;
3993;SDS011;2011;48.238;13.948;2022-11-15T02:26:13;26.10;;;15.13;;
3993;SDS011;2011;48.238;13.948;2022-11-15T02:28:57;22.13;;;12.80;;
3993;SDS011;2011;48.238;13.948;2022-11-15T02:31:29;33.60;;;15.03;;
3993;SDS011;2011;48.238;13.948;2022-11-15T02:34:04;28.27;;;14.30;;
3993;SDS011;2011;48.238;13.948;2022-11-15T02:36:40;32.93;;;16.10;;
3993;SDS011;2011;48.238;13.948;2022-11-15T02:39:15;18.20;;;11.10;;
3993;SDS011;2011;48.238;13.948;2022-11-15T02:41:50;76.47;;;19.90;;
3993;SDS011;2011;48.238;13.948;2022-11-15T02:44:23;27.30;;;14.77;;
3993;SDS011;2011;48.238;13.948;2022-11-15T02:46:54;39.83;;;16.20;;
3993;SDS011;2011;48.238;13.948;2022-11-15T02:49:41;25.53;;;13.27;;
3993;SDS011;2011;48.238;13.948;2022-11-15T02:52:14;31.23;;;15.53;;
3993;SDS011;2011;48.238;13.948;2022-11-15T02:54:42;29.23;;;15.23;;
3993;SDS011;2011;48.238;13.948;2022-11-15T02:57:10;27.93;;;15.10;;
3993;SDS011;2011;48.238;13.948;2022-11-15T02:59:44;33.70;;;17.07;;
3993;SDS011;2011;48.238;13.948;2022-11-15T03:02:37;30.07;;;15.83;;
3993;SDS011;2011;48.238;13.948;2022-11-15T03:05:12;29.07;;;15.53;;
3993;SDS011;2011;48.238;13.948;2022-11-15T03:07:48;26.90;;;14.30;;
3993;SDS011;2011;48.238;13.948;2022-11-15T03:10:21;27.83;;;14.80;;
3993;SDS011;2011;48.238;13.948;2022-11-15T03:12:53;20.33;;;12.20;;
3993;SDS011;2011;48.238;13.948;2022-11-15T03:15:24;24.63;;;13.63;;
3993;SDS011;2011;48.238;13.948;2022-11-15T03:17:57;26.37;;;13.80;;
3993;SDS011;2011;48.238;13.948;2022-11-15T03:20:27;31.00;;;13.87;;
3993;SDS011;2011;48.238;13.948;2022-11-15T03:22:55;23.57;;;12.37;;
3993;SDS011;2011;48.238;13.948;2022-11-15T03:25:29;33.60;;;13.50;;
3993;SDS011;2011;48.238;13.948;2022-11-15T03:28:00;23.47;;;13.07;;
3993;SDS011;2011;48.238;13.948;2022-11-15T03:30:31;21.10;;;12.63;;
3993;SDS011;2011;48.238;13.948;2022-11-15T03:33:02;43.97;;;18.00;;
3993;SDS011;2011;48.238;13.948;2022-11-15T03:35:32;26.40;;;14.80;;
3993;SDS011;2011;48.238;13.948;2022-11-15T03:38:04;24.23;;;14.27;;
3993;SDS011;2011;48.238;13.948;2022-11-15T03:40:35;21.60;;;12.50;;
3993;SDS011;2011;48.238;13.948;2022-11-15T03:43:07;22.10;;;11.93;;
3993;SDS011;2011;48.238;13.948;2022-11-15T03:45:43;21.27;;;11.90;;
3993;SDS011;2011;48.238;13.948;2022-11-15T03:48:15;25.43;;;14.90;;
3993;SDS011;2011;48.238;13.948;2022-11-15T03:50:47;26.53;;;14.40;;
3993;SDS011;2011;48.238;13.948;2022-11-15T03:53:15;28.80;;;15.40;;
3993;SDS011;2011;48.238;13.948;2022-11-15T03:55:41;25.87;;;12.90;;
3993;SDS011;2011;48.238;13.948;2022-11-15T03:58:08;22.50;;;13.03;;
3993;SDS011;2011;48.238;13.948;2022-11-15T04:00:35;25.27;;;13.53;;
3993;SDS011;2011;48.238;13.948;2022-11-15T04:03:02;24.87;;;14.33;;
3993;SDS011;2011;48.238;13.948;2022-11-15T04:05:31;36.00;;;17.33;;
3993;SDS011;2011;48.238;13.948;2022-11-15T04:07:57;57.27;;;26.43;;
3993;SDS011;2011;48.238;13.948;2022-11-15T04:10:24;36.03;;;18.80;;
3993;SDS011;2011;48.238;13.948;2022-11-15T04:12:51;35.90;;;16.03;;
3993;SDS011;2011;48.238;13.948;2022-11-15T04:15:19;31.40;;;16.27;;
3993;SDS011;2011;48.238;13.948;2022-11-15T04:17:48;39.60;;;18.10;;
3993;SDS011;2011;48.238;13.948;2022-11-15T04:20:17;36.87;;;18.37;;
3993;SDS011;2011;48.238;13.948;2022-11-15T04:23:05;21.70;;;13.30;;
3993;SDS011;2011;48.238;13.948;2022-11-15T04:25:51;24.53;;;14.80;;
3993;SDS011;2011;48.238;13.948;2022-11-15T04:28:20;48.27;;;14.70;;
3993;SDS011;2011;48.238;13.948;2022-11-15T04:30:47;19.80;;;11.63;;
3993;SDS011;2011;48.238;13.948;2022-11-15T04:33:14;20.90;;;12.00;;
3993;SDS011;2011;48.238;13.948;2022-11-15T04:35:41;20.20;;;11.20;;
3993;SDS011;2011;48.238;13.948;2022-11-15T04:38:30;20.03;;;12.10;;
3993;SDS011;2011;48.238;13.948;2022-11-15T04:40:56;19.03;;;10.73;;
3993;SDS011;2011;48.238;13.948;2022-11-15T04:43:23;30.83;;;15.17;;
3993;SDS011;2011;48.238;13.948;2022-11-15T04:45:50;40.23;;;19.93;;
3993;SDS011;2011;48.238;13.948;2022-11-15T04:48:17;42.63;;;21.47;;
3993;SDS011;2011;48.238;13.948;2022-11-15T04:50:44;37.40;;;20.53;;
3993;SDS011;2011;48.238;13.948;2022-11-15T04:53:11;31.60;;;17.37;;
3993;SDS011;2011;48.238;13.948;2022-11-15T04:55:39;23.63;;;14.50;;
3993;SDS011;2011;48.238;13.948;2022-11-15T04:58:06;24.20;;;15.00;;
3993;SDS011;2011;48.238;13.948;2022-11-15T05:00:33;47.80;;;21.40;;
3993;SDS011;2011;48.238;13.948;2022-11-15T05:03:00;29.70;;;15.93;;
3993;SDS011;2011;48.238;13.948;2022-11-15T05:05:44;20.27;;;12.47;;
3993;SDS011;2011;48.238;13.948;2022-11-15T05:08:11;21.00;;;13.10;;
3993;SDS011;2011;48.238;13.948;2022-11-15T05:10:39;21.40;;;12.90;;
3993;SDS011;2011;48.238;13.948;2022-11-15T05:13:06;26.10;;;14.00;;
3993;SDS011;2011;48.238;13.948;2022-11-15T05:15:33;36.07;;;14.27;;
3993;SDS011;2011;48.238;13.948;2022-11-15T05:18:00;21.77;;;12.07;;
3993;SDS011;2011;48.238;13.948;2022-11-15T05:20:27;22.60;;;11.97;;
3993;SDS011;2011;48.238;13.948;2022-11-15T05:22:54;31.57;;;12.27;;
3993;SDS011;2011;48.238;13.948;2022-11-15T05:25:21;17.87;;;11.07;;
3993;SDS011;2011;48.238;13.948;2022-11-15T05:27:49;19.97;;;12.40;;
3993;SDS011;2011;48.238;13.948;2022-11-15T05:30:16;26.20;;;12.27;;
3993;SDS011;2011;48.238;13.948;2022-11-15T05:32:43;24.30;;;13.17;;
3993;SDS011;2011;48.238;13.948;2022-11-15T05:35:12;27.30;;;15.03;;
3993;SDS011;2011;48.238;13.948;2022-11-15T05:37:44;20.33;;;12.90;;
3993;SDS011;2011;48.238;13.948;2022-11-15T05:40:11;29.57;;;14.17;;
3993;SDS011;2011;48.238;13.948;2022-11-15T05:42:38;35.40;;;16.70;;
3993;SDS011;2011;48.238;13.948;2022-11-15T05:45:07;28.10;;;15.10;;
3993;SDS011;2011;48.238;13.948;2022-11-15T05:47:35;41.93;;;19.77;;
3993;SDS011;2011;48.238;13.948;2022-11-15T05:50:05;47.63;;;17.30;;
3993;SDS011;2011;48.238;13.948;2022-11-15T05:52:33;35.13;;;17.53;;
3993;SDS011;2011;48.238;13.948;2022-11-15T05:55:03;30.42;;;15.40;;
3993;SDS011;2011;48.238;13.948;2022-11-15T05:57:33;34.13;;;17.00;;
3993;SDS011;2011;48.238;13.948;2022-11-15T06:00:00;27.70;;;13.52;;
3993;SDS011;2011;48.238;13.948;2022-11-15T06:02:29;33.65;;;17.60;;
3993;SDS011;2011;48.238;13.948;2022-11-15T06:04:56;28.77;;;16.50;;
3993;SDS011;2011;48.238;13.948;2022-11-15T06:07:23;30.43;;;15.60;;
3993;SDS011;2011;48.238;13.948;2022-11-15T06:09:50;28.55;;;15.23;;
3993;SDS011;2011;48.238;13.948;2022-11-15T06:12:17;27.53;;;14.67;;
3993;SDS011;2011;48.238;13.948;2022-11-15T06:14:44;32.47;;;16.43;;
3993;SDS011;2011;48.238;13.948;2022-11-15T06:17:11;38.00;;;18.23;;
3993;SDS011;2011;48.238;13.948;2022-11-15T06:19:39;25.97;;;13.10;;
3993;SDS011;2011;48.238;13.948;2022-11-15T06:22:06;21.65;;;12.10;;
3993;SDS011;2011;48.238;13.948;2022-11-15T06:24:34;25.20;;;13.40;;
3993;SDS011;2011;48.238;13.948;2022-11-15T06:27:01;30.25;;;14.88;;
3993;SDS011;2011;48.238;13.948;2022-11-15T06:29:28;27.30;;;14.33;;
3993;SDS011;2011;48.238;13.948;2022-11-15T06:31:55;29.20;;;14.53;;
3993;SDS011;2011;48.238;13.948;2022-11-15T06:34:22;28.40;;;14.27;;
3993;SDS011;2011;48.238;13.948;2022-11-15T06:36:50;26.10;;;15.10;;
3993;SDS011;2011;48.238;13.948;2022-11-15T06:39:18;35.33;;;13.75;;
3993;SDS011;2011;48.238;13.948;2022-11-15T06:41:45;28.95;;;15.98;;
3993;SDS011;2011;48.238;13.948;2022-11-15T06:44:12;22.38;;;12.93;;
3993;SDS011;2011;48.238;13.948;2022-11-15T06:46:39;37.70;;;18.45;;
3993;SDS011;2011;48.238;13.948;2022-11-15T06:49:06;23.70;;;13.90;;
3993;SDS011;2011;48.238;13.948;2022-11-15T06:51:33;22.13;;;12.00;;
3993;SDS011;2011;48.238;13.948;2022-11-15T06:54:01;33.08;;;13.90;;
3993;SDS011;2011;48.238;13.948;2022-11-15T06:56:28;21.15;;;12.90;;
3993;SDS011;2011;48.238;13.948;2022-11-15T06:58:55;19.77;;;11.57;;
3993;SDS011;2011;48.238;13.948;2022-11-15T07:01:22;22.52;;;11.55;;
3993;SDS011;2011;48.238;13.948;2022-11-15T07:03:49;42.22;;;17.80;;
3993;SDS011;2011;48.238;13.948;2022-11-15T07:06:16;27.57;;;14.40;;
3993;SDS011;2011;48.238;13.948;2022-11-15T07:08:42;48.47;;;15.27;;
3993;SDS011;2011;48.238;13.948;2022-11-15T07:11:12;21.33;;;13.32;;
3993;SDS011;2011;48.238;13.948;2022-11-15T07:13:39;24.07;;;13.63;;
3993;SDS011;2011;48.238;13.948;2022-11-15T07:16:07;45.23;;;15.90;;
3993;SDS011;2011;48.238;13.948;2022-11-15T07:18:35;23.10;;;13.33;;
3993;SDS011;2011;48.238;13.948;2022-11-15T07:21:03;36.07;;;17.33;;
3993;SDS011;2011;48.238;13.948;2022-11-15T07:23:31;31.60;;;17.10;;
3993;SDS011;2011;48.238;13.948;2022-11-15T07:25:58;50.87;;;20.43;;
3993;SDS011;2011;48.238;13.948;2022-11-15T07:28:27;28.37;;;17.00;;
3993;SDS011;2011;48.238;13.948;2022-11-15T07:30:54;31.67;;;18.17;;
3993;SDS011;2011;48.238;13.948;2022-11-15T07:33:21;45.93;;;23.30;;
3993;SDS011;2011;48.238;13.948;2022-11-15T07:35:48;31.53;;;17.23;;
3993;SDS011;2011;48.238;13.948;2022-11-15T07:38:15;28.27;;;17.17;;
3993;SDS011;2011;48.238;13.948;2022-11-15T07:40:44;29.47;;;16.60;;
3993;SDS011;2011;48.238;13.948;2022-11-15T07:43:12;26.97;;;17.40;;
3993;SDS011;2011;48.238;13.948;2022-11-15T07:45:41;29.40;;;17.07;;
3993;SDS011;2011;48.238;13.948;2022-11-15T07:48:09;33.37;;;17.43;;
3993;SDS011;2011;48.238;13.948;2022-11-15T07:50:37;33.17;;;18.90;;
3993;SDS011;2011;48.238;13.948;2022-11-15T07:53:08;34.10;;;17.70;;
3993;SDS011;2011;48.238;13.948;2022-11-15T07:55:35;28.13;;;16.47;;
3993;SDS011;2011;48.238;13.948;2022-11-15T07:58:03;32.63;;;17.73;;
3993;SDS011;2011;48.238;13.948;2022-11-15T08:00:31;30.67;;;17.57;;
3993;SDS011;2011;48.238;13.948;2022-11-15T08:03:04;29.50;;;16.80;;
3993;SDS011;2011;48.238;13.948;2022-11-15T08:05:32;37.00;;;19.07;;
3993;SDS011;2011;48.238;13.948;2022-11-15T08:08:00;39.87;;;17.47;;
3993;SDS011;2011;48.238;13.948;2022-11-15T08:10:27;52.13;;;21.33;;
3993;SDS011;2011;48.238;13.948;2022-11-15T08:12:57;70.97;;;24.93;;
3993;SDS011;2011;48.238;13.948;2022-11-15T08:15:25;99.97;;;27.63;;
3993;SDS011;2011;48.238;13.948;2022-11-15T08:17:53;107.97;;;27.77;;
3993;SDS011;2011;48.238;13.948;2022-11-15T08:20:22;94.43;;;26.30;;
3993;SDS011;2011;48.238;13.948;2022-11-15T08:22:50;87.87;;;27.07;;
3993;SDS011;2011;48.238;13.948;2022-11-15T08:25:17;153.60;;;29.30;;
3993;SDS011;2011;48.238;13.948;2022-11-15T08:27:44;138.53;;;26.47;;
3993;SDS011;2011;48.238;13.948;2022-11-15T08:30:12;79.27;;;24.70;;
3993;SDS011;2011;48.238;13.948;2022-11-15T08:32:41;218.80;;;32.73;;
3993;SDS011;2011;48.238;13.948;2022-11-15T08:35:08;165.27;;;27.57;;
3993;SDS011;2011;48.238;13.948;2022-11-15T08:37:36;390.43;;;42.00;;
3993;SDS011;2011;48.238;13.948;2022-11-15T08:40:03;138.03;;;27.03;;
3993;SDS011;2011;48.238;13.948;2022-11-15T08:42:31;329.00;;;46.53;;
3993;SDS011;2011;48.238;13.948;2022-11-15T08:44:58;314.10;;;39.80;;
3993;SDS011;2011;48.238;13.948;2022-11-15T08:47:25;165.67;;;32.07;;
3993;SDS011;2011;48.238;13.948;2022-11-15T08:49:52;174.07;;;32.03;;
3993;SDS011;2011;48.238;13.948;2022-11-15T08:52:19;162.43;;;35.30;;
3993;SDS011;2011;48.238;13.948;2022-11-15T08:54:47;117.03;;;29.33;;
3993;SDS011;2011;48.238;13.948;2022-11-15T08:57:14;96.03;;;29.10;;
3993;SDS011;2011;48.238;13.948;2022-11-15T08:59:41;127.57;;;32.50;;
3993;SDS011;2011;48.238;13.948;2022-11-15T09:02:10;195.90;;;33.93;;
3993;SDS011;2011;48.238;13.948;2022-11-15T09:04:39;766.50;;;77.37;;
3993;SDS011;2011;48.238;13.948;2022-11-15T09:07:07;140.23;;;37.93;;
3993;SDS011;2011;48.238;13.948;2022-11-15T09:09:35;254.60;;;40.50;;
3993;SDS011;2011;48.238;13.948;2022-11-15T09:12:04;190.27;;;41.43;;
3993;SDS011;2011;48.238;13.948;2022-11-15T09:14:31;179.93;;;39.53;;
3993;SDS011;2011;48.238;13.948;2022-11-15T09:16:59;198.50;;;41.60;;
3993;SDS011;2011;48.238;13.948;2022-11-15T09:19:26;142.43;;;39.27;;
3993;SDS011;2011;48.238;13.948;2022-11-15T09:21:53;331.07;;;52.20;;
3993;SDS011;2011;48.238;13.948;2022-11-15T09:24:20;228.00;;;48.37;;
3993;SDS011;2011;48.238;13.948;2022-11-15T09:26:49;125.57;;;41.37;;
3993;SDS011;2011;48.238;13.948;2022-11-15T09:29:18;118.93;;;38.67;;
3993;SDS011;2011;48.238;13.948;2022-11-15T09:31:45;108.73;;;35.77;;
3993;SDS011;2011;48.238;13.948;2022-11-15T09:34:12;168.90;;;40.00;;
3993;SDS011;2011;48.238;13.948;2022-11-15T09:36:39;191.70;;;45.10;;
3993;SDS011;2011;48.238;13.948;2022-11-15T09:39:06;147.03;;;39.90;;
3993;SDS011;2011;48.238;13.948;2022-11-15T09:44:29;90.23;;;35.90;;
3993;SDS011;2011;48.238;13.948;2022-11-15T09:47:06;147.07;;;36.23;;
3993;SDS011;2011;48.238;13.948;2022-11-15T09:49:58;138.17;;;38.53;;
3993;SDS011;2011;48.238;13.948;2022-11-15T09:52:27;78.60;;;33.77;;
3993;SDS011;2011;48.238;13.948;2022-11-15T09:54:54;86.63;;;36.60;;
3993;SDS011;2011;48.238;13.948;2022-11-15T09:57:24;86.97;;;33.40;;
3993;SDS011;2011;48.238;13.948;2022-11-15T10:00:07;79.20;;;33.57;;
3993;SDS011;2011;48.238;13.948;2022-11-15T10:02:41;68.60;;;30.37;;
3993;SDS011;2011;48.238;13.948;2022-11-15T10:05:38;95.67;;;32.47;;
3993;SDS011;2011;48.238;13.948;2022-11-15T10:08:10;89.43;;;30.67;;
3993;SDS011;2011;48.238;13.948;2022-11-15T10:10:46;78.33;;;29.50;;
3993;SDS011;2011;48.238;13.948;2022-11-15T10:13:16;77.30;;;28.10;;
3993;SDS011;2011;48.238;13.948;2022-11-15T10:15:50;74.03;;;29.57;;
3993;SDS011;2011;48.238;13.948;2022-11-15T10:18:20;86.43;;;30.50;;
3993;SDS011;2011;48.238;13.948;2022-11-15T10:20:55;97.10;;;32.10;;
3993;SDS011;2011;48.238;13.948;2022-11-15T10:23:25;68.33;;;27.27;;
3993;SDS011;2011;48.238;13.948;2022-11-15T10:25:55;75.23;;;31.77;;
3993;SDS011;2011;48.238;13.948;2022-11-15T10:28:25;60.77;;;27.20;;
3993;SDS011;2011;48.238;13.948;2022-11-15T10:30:56;71.27;;;29.33;;
3993;SDS011;2011;48.238;13.948;2022-11-15T10:33:26;73.90;;;31.17;;
3993;SDS011;2011;48.238;13.948;2022-11-15T10:38:53;97.03;;;31.60;;
3993;SDS011;2011;48.238;13.948;2022-11-15T10:41:27;59.20;;;27.90;;
3993;SDS011;2011;48.238;13.948;2022-11-15T10:44:17;83.47;;;28.13;;
3993;SDS011;2011;48.238;13.948;2022-11-15T10:49:57;82.00;;;31.67;;
3993;SDS011;2011;48.238;13.948;2022-11-15T10:52:25;112.83;;;31.53;;
3993;SDS011;2011;48.238;13.948;2022-11-15T10:54:54;125.93;;;31.17;;
3993;SDS011;2011;48.238;13.948;2022-11-15T10:57:26;71.03;;;29.30;;
3993;SDS011;2011;48.238;13.948;2022-11-15T10:59:56;70.53;;;30.87;;
3993;SDS011;2011;48.238;13.948;2022-11-15T11:02:31;111.03;;;29.23;;
3993;SDS011;2011;48.238;13.948;2022-11-15T11:05:00;78.60;;;31.20;;
3993;SDS011;2011;48.238;13.948;2022-11-15T11:07:29;81.57;;;31.17;;
3993;SDS011;2011;48.238;13.948;2022-11-15T11:09:58;71.17;;;28.47;;
3993;SDS011;2011;48.238;13.948;2022-11-15T11:12:27;94.73;;;28.30;;
3993;SDS011;2011;48.238;13.948;2022-11-15T11:14:57;81.30;;;28.90;;
3993;SDS011;2011;48.238;13.948;2022-11-15T11:17:29;88.17;;;29.27;;
3993;SDS011;2011;48.238;13.948;2022-11-15T11:20:06;55.00;;;27.10;;
3993;SDS011;2011;48.238;13.948;2022-11-15T11:22:41;54.73;;;25.17;;
3993;SDS011;2011;48.238;13.948;2022-11-15T11:25:28;66.87;;;28.00;;
3993;SDS011;2011;48.238;13.948;2022-11-15T11:28:12;60.60;;;27.93;;
3993;SDS011;2011;48.238;13.948;2022-11-15T11:30:52;66.93;;;30.10;;
3993;SDS011;2011;48.238;13.948;2022-11-15T11:33:29;74.90;;;29.70;;
3993;SDS011;2011;48.238;13.948;2022-11-15T11:36:09;55.67;;;27.40;;
3993;SDS011;2011;48.238;13.948;2022-11-15T11:38:49;63.33;;;28.17;;
3993;SDS011;2011;48.238;13.948;2022-11-15T11:41:27;70.97;;;29.23;;
3993;SDS011;2011;48.238;13.948;2022-11-15T11:44:18;81.20;;;29.73;;
3993;SDS011;2011;48.238;13.948;2022-11-15T11:46:55;82.67;;;28.57;;
3993;SDS011;2011;48.238;13.948;2022-11-15T11:49:29;61.53;;;26.03;;
3993;SDS011;2011;48.238;13.948;2022-11-15T11:52:02;70.13;;;29.23;;
3993;SDS011;2011;48.238;13.948;2022-11-15T11:54:37;79.27;;;31.23;;
3993;SDS011;2011;48.238;13.948;2022-11-15T11:57:13;65.20;;;27.77;;
3993;SDS011;2011;48.238;13.948;2022-11-15T11:59:48;59.50;;;26.53;;
3993;SDS011;2011;48.238;13.948;2022-11-15T12:02:25;76.17;;;30.07;;
3993;SDS011;2011;48.238;13.948;2022-11-15T12:05:01;70.77;;;28.10;;
3993;SDS011;2011;48.238;13.948;2022-11-15T12:07:35;72.03;;;29.17;;
3993;SDS011;2011;48.238;13.948;2022-11-15T12:10:12;68.90;;;29.27;;
3993;SDS011;2011;48.238;13.948;2022-11-15T12:12:48;70.23;;;28.20;;
3993;SDS011;2011;48.238;13.948;2022-11-15T12:15:20;86.67;;;29.30;;
3993;SDS011;2011;48.238;13.948;2022-11-15T12:17:51;76.70;;;29.00;;
3993;SDS011;2011;48.238;13.948;2022-11-15T12:20:22;118.87;;;30.50;;
3993;SDS011;2011;48.238;13.948;2022-11-15T12:22:53;97.77;;;26.03;;
3993;SDS011;2011;48.238;13.948;2022-11-15T12:25:24;69.73;;;26.90;;
3993;SDS011;2011;48.238;13.948;2022-11-15T12:27:56;55.47;;;26.27;;
3993;SDS011;2011;48.238;13.948;2022-11-15T12:30:31;60.63;;;25.43;;
3993;SDS011;2011;48.238;13.948;2022-11-15T12:33:15;73.43;;;26.90;;
3993;SDS011;2011;48.238;13.948;2022-11-15T12:36:02;53.13;;;24.40;;
3993;SDS011;2011;48.238;13.948;2022-11-15T12:41:19;96.80;;;29.20;;
3993;SDS011;2011;48.238;13.948;2022-11-15T12:43:47;77.33;;;30.40;;
3993;SDS011;2011;48.238;13.948;2022-11-15T12:46:19;94.90;;;31.37;;
3993;SDS011;2011;48.238;13.948;2022-11-15T12:52:11;108.30;;;31.90;;
3993;SDS011;2011;48.238;13.948;2022-11-15T13:00:53;78.60;;;28.87;;
3993;SDS011;2011;48.238;13.948;2022-11-15T13:03:24;157.03;;;32.70;;
3993;SDS011;2011;48.238;13.948;2022-11-15T13:05:57;142.57;;;30.23;;
3993;SDS011;2011;48.238;13.948;2022-11-15T13:08:43;85.00;;;29.77;;
3993;SDS011;2011;48.238;13.948;2022-11-15T13:20:19;115.47;;;27.93;;
3993;SDS011;2011;48.238;13.948;2022-11-15T13:22:49;106.63;;;29.40;;
3993;SDS011;2011;48.238;13.948;2022-11-15T13:25:18;118.63;;;28.17;;
3993;SDS011;2011;48.238;13.948;2022-11-15T13:28:09;84.87;;;27.33;;
3993;SDS011;2011;48.238;13.948;2022-11-15T13:30:48;73.73;;;27.07;;
3993;SDS011;2011;48.238;13.948;2022-11-15T13:33:17;73.43;;;27.90;;
3993;SDS011;2011;48.238;13.948;2022-11-15T13:35:46;97.83;;;29.53;;
3993;SDS011;2011;48.238;13.948;2022-11-15T13:38:17;184.33;;;33.20;;
3993;SDS011;2011;48.238;13.948;2022-11-15T13:40:54;106.80;;;29.20;;
3993;SDS011;2011;48.238;13.948;2022-11-15T13:43:29;97.33;;;27.57;;
3993;SDS011;2011;48.238;13.948;2022-11-15T13:46:04;111.93;;;27.47;;
3993;SDS011;2011;48.238;13.948;2022-11-15T13:48:32;125.80;;;28.27;;
3993;SDS011;2011;48.238;13.948;2022-11-15T13:51:00;61.67;;;24.27;;
3993;SDS011;2011;48.238;13.948;2022-11-15T13:53:29;87.83;;;25.80;;
3993;SDS011;2011;48.238;13.948;2022-11-15T13:55:59;75.23;;;26.50;;
3993;SDS011;2011;48.238;13.948;2022-11-15T13:58:26;52.13;;;23.10;;
3993;SDS011;2011;48.238;13.948;2022-11-15T14:00:58;63.70;;;23.43;;
3993;SDS011;2011;48.238;13.948;2022-11-15T14:03:27;60.60;;;23.73;;
3993;SDS011;2011;48.238;13.948;2022-11-15T14:06:02;57.90;;;24.47;;
3993;SDS011;2011;48.238;13.948;2022-11-15T14:08:33;49.50;;;21.90;;
3993;SDS011;2011;48.238;13.948;2022-11-15T14:11:09;85.33;;;24.90;;
3993;SDS011;2011;48.238;13.948;2022-11-15T14:13:42;69.90;;;24.07;;
3993;SDS011;2011;48.238;13.948;2022-11-15T14:16:32;56.27;;;24.53;;
3993;SDS011;2011;48.238;13.948;2022-11-15T14:19:00;74.33;;;27.10;;
3993;SDS011;2011;48.238;13.948;2022-11-15T14:21:29;70.17;;;25.10;;
3993;SDS011;2011;48.238;13.948;2022-11-15T14:26:43;71.43;;;24.43;;
3993;SDS011;2011;48.238;13.948;2022-11-15T14:29:23;69.53;;;24.67;;
3993;SDS011;2011;48.238;13.948;2022-11-15T14:31:50;61.43;;;24.90;;
3993;SDS011;2011;48.238;13.948;2022-11-15T14:34:18;65.93;;;23.77;;
3993;SDS011;2011;48.238;13.948;2022-11-15T14:36:47;111.77;;;27.33;;
3993;SDS011;2011;48.238;13.948;2022-11-15T14:39:16;113.27;;;27.67;;
3993;SDS011;2011;48.238;13.948;2022-11-15T14:41:46;66.50;;;25.80;;
3993;SDS011;2011;48.238;13.948;2022-11-15T14:44:13;63.57;;;24.37;;
3993;SDS011;2011;48.238;13.948;2022-11-15T14:46:43;84.20;;;26.50;;
3993;SDS011;2011;48.238;13.948;2022-11-15T14:49:10;244.00;;;32.50;;
3993;SDS011;2011;48.238;13.948;2022-11-15T14:51:38;76.87;;;26.00;;
3993;SDS011;2011;48.238;13.948;2022-11-15T14:54:05;82.97;;;27.70;;
3993;SDS011;2011;48.238;13.948;2022-11-15T14:56:34;64.43;;;26.07;;
3993;SDS011;2011;48.238;13.948;2022-11-15T14:59:02;73.83;;;27.00;;
3993;SDS011;2011;48.238;13.948;2022-11-15T15:01:29;137.83;;;31.60;;
3993;SDS011;2011;48.238;13.948;2022-11-15T15:03:57;99.80;;;29.10;;
3993;SDS011;2011;48.238;13.948;2022-11-15T15:06:24;95.63;;;28.03;;
3993;SDS011;2011;48.238;13.948;2022-11-15T15:08:52;80.73;;;26.53;;
3993;SDS011;2011;48.238;13.948;2022-11-15T15:11:20;317.63;;;42.90;;
3993;SDS011;2011;48.238;13.948;2022-11-15T15:13:49;90.80;;;27.80;;
3993;SDS011;2011;48.238;13.948;2022-11-15T15:16:18;77.53;;;26.10;;
3993;SDS011;2011;48.238;13.948;2022-11-15T15:18:45;66.47;;;26.13;;
3993;SDS011;2011;48.238;13.948;2022-11-15T15:21:17;66.37;;;25.60;;
3993;SDS011;2011;48.238;13.948;2022-11-15T15:23:47;73.00;;;26.90;;
3993;SDS011;2011;48.238;13.948;2022-11-15T15:26:14;130.13;;;27.00;;